sensor_id;sensor_type;location;lat;lon;timestamp;P1;durP1;ratioP1;P2;durP2;ratioP2
22248;SDS011;67538;52.180;5.646;2023-04-24T00:00:37;3.75;;;2.65;;
22248;SDS011;67538;52.180;5.646;2023-04-24T00:03:05;3.65;;;2.50;;
22248;SDS011;67538;52.180;5.646;2023-04-24T00:05:33;2.80;;;2.60;;
22248;SDS011;67538;52.180;5.646;2023-04-24T00:08:00;3.53;;;2.78;;
22248;SDS011;67538;52.180;5.646;2023-04-24T00:10:27;3.30;;;2.60;;
22248;SDS011;67538;52.180;5.646;2023-04-24T00:12:54;4.23;;;3.10;;
22248;SDS011;67538;52.180;5.646;2023-04-24T00:15:21;4.85;;;3.20;;
22248;SDS011;67538;52.180;5.646;2023-04-24T00:17:50;4.53;;;3.70;;
22248;SDS011;67538;52.180;5.646;2023-04-24T00:20:18;4.32;;;3.53;;
22248;SDS011;67538;52.180;5.646;2023-04-24T00:22:46;4.93;;;4.25;;
22248;SDS011;67538;52.180;5.646;2023-04-24T00:25:13;5.13;;;4.47;;
22248;SDS011;67538;52.180;5.646;2023-04-24T00:27:40;5.45;;;5.03;;
22248;SDS011;67538;52.180;5.646;2023-04-24T00:30:07;7.40;;;6.32;;
22248;SDS011;67538;52.180;5.646;2023-04-24T00:32:35;10.23;;;6.72;;
22248;SDS011;67538;52.180;5.646;2023-04-24T00:35:04;7.45;;;6.57;;
22248;SDS011;67538;52.180;5.646;2023-04-24T00:37:32;6.97;;;6.38;;
22248;SDS011;67538;52.180;5.646;2023-04-24T00:39:59;7.80;;;6.68;;
22248;SDS011;67538;52.180;5.646;2023-04-24T00:42:26;8.30;;;7.20;;
22248;SDS011;67538;52.180;5.646;2023-04-24T00:44:53;8.00;;;6.17;;
22248;SDS011;67538;52.180;5.646;2023-04-24T00:47:20;6.60;;;6.00;;
22248;SDS011;67538;52.180;5.646;2023-04-24T00:49:48;8.13;;;7.32;;
22248;SDS011;67538;52.180;5.646;2023-04-24T00:52:16;8.07;;;6.80;;
22248;SDS011;67538;52.180;5.646;2023-04-24T00:54:43;8.93;;;7.80;;
22248;SDS011;67538;52.180;5.646;2023-04-24T00:57:10;8.75;;;7.88;;
22248;SDS011;67538;52.180;5.646;2023-04-24T00:59:38;10.43;;;7.40;;
22248;SDS011;67538;52.180;5.646;2023-04-24T01:02:06;8.32;;;7.50;;
22248;SDS011;67538;52.180;5.646;2023-04-24T01:04:33;7.60;;;6.90;;
22248;SDS011;67538;52.180;5.646;2023-04-24T01:07:01;8.68;;;7.10;;
22248;SDS011;67538;52.180;5.646;2023-04-24T01:09:29;8.60;;;7.47;;
22248;SDS011;67538;52.180;5.646;2023-04-24T01:11:56;8.20;;;7.10;;
22248;SDS011;67538;52.180;5.646;2023-04-24T01:14:25;8.45;;;7.60;;
22248;SDS011;67538;52.180;5.646;2023-04-24T01:16:52;8.10;;;7.22;;
22248;SDS011;67538;52.180;5.646;2023-04-24T01:19:20;8.18;;;7.47;;
22248;SDS011;67538;52.180;5.646;2023-04-24T01:21:50;9.65;;;7.80;;
22248;SDS011;67538;52.180;5.646;2023-04-24T01:24:21;10.30;;;7.50;;
22248;SDS011;67538;52.180;5.646;2023-04-24T01:26:48;11.15;;;8.40;;
22248;SDS011;67538;52.180;5.646;2023-04-24T01:29:15;9.70;;;8.70;;
22248;SDS011;67538;52.180;5.646;2023-04-24T01:31:42;10.03;;;9.07;;
22248;SDS011;67538;52.180;5.646;2023-04-24T01:34:09;12.07;;;9.50;;
22248;SDS011;67538;52.180;5.646;2023-04-24T01:36:36;11.00;;;9.63;;
22248;SDS011;67538;52.180;5.646;2023-04-24T01:39:05;11.82;;;9.20;;
22248;SDS011;67538;52.180;5.646;2023-04-24T01:41:34;11.00;;;9.80;;
22248;SDS011;67538;52.180;5.646;2023-04-24T01:44:01;11.50;;;9.52;;
22248;SDS011;67538;52.180;5.646;2023-04-24T01:46:28;11.98;;;9.98;;
22248;SDS011;67538;52.180;5.646;2023-04-24T01:48:56;11.73;;;10.55;;
22248;SDS011;67538;52.180;5.646;2023-04-24T01:51:26;12.52;;;10.90;;
22248;SDS011;67538;52.180;5.646;2023-04-24T01:53:53;12.18;;;10.90;;
22248;SDS011;67538;52.180;5.646;2023-04-24T01:56:21;14.18;;;11.10;;
22248;SDS011;67538;52.180;5.646;2023-04-24T01:58:50;13.93;;;11.23;;
22248;SDS011;67538;52.180;5.646;2023-04-24T02:01:20;14.73;;;11.93;;
22248;SDS011;67538;52.180;5.646;2023-04-24T02:03:47;13.35;;;11.95;;
22248;SDS011;67538;52.180;5.646;2023-04-24T02:06:14;15.13;;;12.18;;
22248;SDS011;67538;52.180;5.646;2023-04-24T02:08:41;16.33;;;13.13;;
22248;SDS011;67538;52.180;5.646;2023-04-24T02:11:08;14.90;;;13.30;;
22248;SDS011;67538;52.180;5.646;2023-04-24T02:13:36;15.80;;;13.17;;
22248;SDS011;67538;52.180;5.646;2023-04-24T02:16:04;15.88;;;13.85;;
22248;SDS011;67538;52.180;5.646;2023-04-24T02:18:31;16.35;;;14.07;;
22248;SDS011;67538;52.180;5.646;2023-04-24T02:20:58;20.63;;;14.63;;
22248;SDS011;67538;52.180;5.646;2023-04-24T02:23:25;16.58;;;14.55;;
22248;SDS011;67538;52.180;5.646;2023-04-24T02:25:53;15.55;;;13.90;;
22248;SDS011;67538;52.180;5.646;2023-04-24T02:28:20;15.98;;;13.23;;
22248;SDS011;67538;52.180;5.646;2023-04-24T02:30:47;15.77;;;13.07;;
22248;SDS011;67538;52.180;5.646;2023-04-24T02:33:16;14.00;;;12.05;;
22248;SDS011;67538;52.180;5.646;2023-04-24T02:35:43;14.25;;;11.85;;
22248;SDS011;67538;52.180;5.646;2023-04-24T02:38:10;12.55;;;11.25;;
22248;SDS011;67538;52.180;5.646;2023-04-24T02:40:37;13.17;;;10.70;;
22248;SDS011;67538;52.180;5.646;2023-04-24T02:43:04;11.40;;;10.25;;
22248;SDS011;67538;52.180;5.646;2023-04-24T02:45:31;11.68;;;10.48;;
22248;SDS011;67538;52.180;5.646;2023-04-24T02:47:59;12.10;;;10.50;;
22248;SDS011;67538;52.180;5.646;2023-04-24T02:50:28;11.60;;;10.40;;
22248;SDS011;67538;52.180;5.646;2023-04-24T02:52:55;10.93;;;9.82;;
22248;SDS011;67538;52.180;5.646;2023-04-24T02:55:22;12.37;;;11.07;;
22248;SDS011;67538;52.180;5.646;2023-04-24T02:57:50;11.90;;;10.60;;
22248;SDS011;67538;52.180;5.646;2023-04-24T03:00:17;11.70;;;10.32;;
22248;SDS011;67538;52.180;5.646;2023-04-24T03:02:44;12.00;;;10.80;;
22248;SDS011;67538;52.180;5.646;2023-04-24T03:05:11;12.65;;;11.10;;
22248;SDS011;67538;52.180;5.646;2023-04-24T03:07:40;12.38;;;11.07;;
22248;SDS011;67538;52.180;5.646;2023-04-24T03:10:07;13.77;;;11.17;;
22248;SDS011;67538;52.180;5.646;2023-04-24T03:12:34;14.27;;;11.90;;
22248;SDS011;67538;52.180;5.646;2023-04-24T03:15:02;13.60;;;12.23;;
22248;SDS011;67538;52.180;5.646;2023-04-24T03:17:29;14.15;;;12.27;;
22248;SDS011;67538;52.180;5.646;2023-04-24T03:19:56;14.52;;;12.02;;
22248;SDS011;67538;52.180;5.646;2023-04-24T03:22:23;13.60;;;12.15;;
22248;SDS011;67538;52.180;5.646;2023-04-24T03:24:52;14.18;;;12.27;;
22248;SDS011;67538;52.180;5.646;2023-04-24T03:27:19;14.93;;;12.77;;
22248;SDS011;67538;52.180;5.646;2023-04-24T03:29:46;14.43;;;12.93;;
22248;SDS011;67538;52.180;5.646;2023-04-24T03:32:16;16.77;;;12.85;;
22248;SDS011;67538;52.180;5.646;2023-04-24T03:34:43;16.77;;;13.53;;
22248;SDS011;67538;52.180;5.646;2023-04-24T03:37:10;14.93;;;12.35;;
22248;SDS011;67538;52.180;5.646;2023-04-24T03:39:37;16.17;;;12.10;;
22248;SDS011;67538;52.180;5.646;2023-04-24T03:42:06;16.08;;;12.30;;
22248;SDS011;67538;52.180;5.646;2023-04-24T03:44:33;18.60;;;12.73;;
22248;SDS011;67538;52.180;5.646;2023-04-24T03:47:00;16.20;;;13.02;;
22248;SDS011;67538;52.180;5.646;2023-04-24T03:49:28;15.18;;;12.75;;
22248;SDS011;67538;52.180;5.646;2023-04-24T03:51:55;14.85;;;12.60;;
22248;SDS011;67538;52.180;5.646;2023-04-24T03:54:22;13.63;;;11.48;;
22248;SDS011;67538;52.180;5.646;2023-04-24T03:56:49;14.02;;;11.65;;
22248;SDS011;67538;52.180;5.646;2023-04-24T03:59:17;13.98;;;12.38;;
22248;SDS011;67538;52.180;5.646;2023-04-24T04:01:44;15.20;;;12.68;;
22248;SDS011;67538;52.180;5.646;2023-04-24T04:04:11;15.13;;;11.75;;
22248;SDS011;67538;52.180;5.646;2023-04-24T04:06:38;14.18;;;11.75;;
22248;SDS011;67538;52.180;5.646;2023-04-24T04:09:05;14.80;;;12.13;;
22248;SDS011;67538;52.180;5.646;2023-04-24T04:11:33;13.88;;;11.10;;
22248;SDS011;67538;52.180;5.646;2023-04-24T04:14:01;14.55;;;10.77;;
22248;SDS011;67538;52.180;5.646;2023-04-24T04:16:29;15.50;;;11.30;;
22248;SDS011;67538;52.180;5.646;2023-04-24T04:18:57;14.82;;;11.82;;
22248;SDS011;67538;52.180;5.646;2023-04-24T04:21:24;15.40;;;12.10;;
22248;SDS011;67538;52.180;5.646;2023-04-24T04:23:52;15.57;;;12.52;;
22248;SDS011;67538;52.180;5.646;2023-04-24T04:26:19;17.55;;;13.32;;
22248;SDS011;67538;52.180;5.646;2023-04-24T04:28:46;17.00;;;13.50;;
22248;SDS011;67538;52.180;5.646;2023-04-24T04:31:14;19.17;;;14.67;;
22248;SDS011;67538;52.180;5.646;2023-04-24T04:33:42;20.02;;;14.57;;
22248;SDS011;67538;52.180;5.646;2023-04-24T04:36:09;20.73;;;14.88;;
22248;SDS011;67538;52.180;5.646;2023-04-24T04:38:37;19.85;;;14.57;;
22248;SDS011;67538;52.180;5.646;2023-04-24T04:41:05;20.75;;;15.65;;
22248;SDS011;67538;52.180;5.646;2023-04-24T04:43:32;19.10;;;15.15;;
22248;SDS011;67538;52.180;5.646;2023-04-24T04:45:59;19.40;;;15.15;;
22248;SDS011;67538;52.180;5.646;2023-04-24T04:48:28;22.27;;;15.02;;
22248;SDS011;67538;52.180;5.646;2023-04-24T04:50:57;18.13;;;14.70;;
22248;SDS011;67538;52.180;5.646;2023-04-24T04:53:25;17.65;;;13.23;;
22248;SDS011;67538;52.180;5.646;2023-04-24T04:55:52;18.40;;;13.98;;
22248;SDS011;67538;52.180;5.646;2023-04-24T04:58:19;17.27;;;12.52;;
22248;SDS011;67538;52.180;5.646;2023-04-24T05:00:46;14.48;;;11.35;;
22248;SDS011;67538;52.180;5.646;2023-04-24T05:03:13;13.35;;;10.50;;
22248;SDS011;67538;52.180;5.646;2023-04-24T05:05:40;16.90;;;11.25;;
22248;SDS011;67538;52.180;5.646;2023-04-24T05:08:09;15.52;;;11.50;;
22248;SDS011;67538;52.180;5.646;2023-04-24T05:10:36;14.70;;;11.73;;
22248;SDS011;67538;52.180;5.646;2023-04-24T05:13:03;18.30;;;11.93;;
22248;SDS011;67538;52.180;5.646;2023-04-24T05:15:30;15.45;;;11.45;;
22248;SDS011;67538;52.180;5.646;2023-04-24T05:17:57;15.18;;;11.40;;
22248;SDS011;67538;52.180;5.646;2023-04-24T05:20:24;14.98;;;10.75;;
22248;SDS011;67538;52.180;5.646;2023-04-24T05:22:51;13.50;;;10.48;;
22248;SDS011;67538;52.180;5.646;2023-04-24T05:25:19;18.03;;;11.10;;
22248;SDS011;67538;52.180;5.646;2023-04-24T05:27:46;16.25;;;11.13;;
22248;SDS011;67538;52.180;5.646;2023-04-24T05:30:14;16.88;;;11.13;;
22248;SDS011;67538;52.180;5.646;2023-04-24T05:32:41;16.83;;;11.38;;
22248;SDS011;67538;52.180;5.646;2023-04-24T05:35:08;17.77;;;11.85;;
22248;SDS011;67538;52.180;5.646;2023-04-24T05:37:35;18.02;;;12.43;;
22248;SDS011;67538;52.180;5.646;2023-04-24T05:40:02;18.35;;;12.80;;
22248;SDS011;67538;52.180;5.646;2023-04-24T05:42:32;17.75;;;12.38;;
22248;SDS011;67538;52.180;5.646;2023-04-24T05:44:59;13.82;;;10.45;;
22248;SDS011;67538;52.180;5.646;2023-04-24T05:47:26;15.80;;;11.43;;
22248;SDS011;67538;52.180;5.646;2023-04-24T05:49:53;18.08;;;12.20;;
22248;SDS011;67538;52.180;5.646;2023-04-24T05:52:20;19.33;;;12.32;;
22248;SDS011;67538;52.180;5.646;2023-04-24T05:54:47;17.27;;;12.25;;
22248;SDS011;67538;52.180;5.646;2023-04-24T05:57:14;18.05;;;12.13;;
22248;SDS011;67538;52.180;5.646;2023-04-24T05:59:42;18.65;;;12.45;;
22248;SDS011;67538;52.180;5.646;2023-04-24T06:02:09;17.90;;;11.60;;
22248;SDS011;67538;52.180;5.646;2023-04-24T06:04:36;17.27;;;12.10;;
22248;SDS011;67538;52.180;5.646;2023-04-24T06:07:03;18.75;;;12.48;;
22248;SDS011;67538;52.180;5.646;2023-04-24T06:09:31;18.92;;;12.18;;
22248;SDS011;67538;52.180;5.646;2023-04-24T06:11:58;20.73;;;12.47;;
22248;SDS011;67538;52.180;5.646;2023-04-24T06:14:25;19.48;;;12.25;;
22248;SDS011;67538;52.180;5.646;2023-04-24T06:16:54;21.05;;;11.77;;
22248;SDS011;67538;52.180;5.646;2023-04-24T06:19:21;25.75;;;11.68;;
22248;SDS011;67538;52.180;5.646;2023-04-24T06:21:48;16.77;;;11.60;;
22248;SDS011;67538;52.180;5.646;2023-04-24T06:24:15;18.60;;;12.20;;
22248;SDS011;67538;52.180;5.646;2023-04-24T06:26:42;19.08;;;11.45;;
22248;SDS011;67538;52.180;5.646;2023-04-24T06:29:09;18.10;;;11.38;;
22248;SDS011;67538;52.180;5.646;2023-04-24T06:31:36;18.98;;;11.38;;
22248;SDS011;67538;52.180;5.646;2023-04-24T06:34:05;19.33;;;11.60;;
22248;SDS011;67538;52.180;5.646;2023-04-24T06:36:32;15.97;;;10.40;;
22248;SDS011;67538;52.180;5.646;2023-04-24T06:38:59;16.67;;;10.48;;
22248;SDS011;67538;52.180;5.646;2023-04-24T06:41:27;15.85;;;9.20;;
22248;SDS011;67538;52.180;5.646;2023-04-24T06:43:54;12.60;;;7.30;;
22248;SDS011;67538;52.180;5.646;2023-04-24T06:46:21;11.48;;;7.00;;
22248;SDS011;67538;52.180;5.646;2023-04-24T06:48:51;12.10;;;7.15;;
22248;SDS011;67538;52.180;5.646;2023-04-24T06:51:22;13.63;;;6.50;;
22248;SDS011;67538;52.180;5.646;2023-04-24T06:53:49;10.40;;;5.60;;
22248;SDS011;67538;52.180;5.646;2023-04-24T06:56:17;8.30;;;5.18;;
22248;SDS011;67538;52.180;5.646;2023-04-24T06:58:45;9.10;;;5.13;;
22248;SDS011;67538;52.180;5.646;2023-04-24T07:01:12;11.60;;;5.15;;
22248;SDS011;67538;52.180;5.646;2023-04-24T07:03:39;9.30;;;5.70;;
22248;SDS011;67538;52.180;5.646;2023-04-24T07:06:07;11.48;;;8.05;;
22248;SDS011;67538;52.180;5.646;2023-04-24T07:08:35;14.10;;;9.32;;
22248;SDS011;67538;52.180;5.646;2023-04-24T07:11:03;14.68;;;9.15;;
22248;SDS011;67538;52.180;5.646;2023-04-24T07:13:30;15.57;;;10.80;;
22248;SDS011;67538;52.180;5.646;2023-04-24T07:15:57;21.13;;;12.15;;
22248;SDS011;67538;52.180;5.646;2023-04-24T07:18:24;21.75;;;13.73;;
22248;SDS011;67538;52.180;5.646;2023-04-24T07:20:51;23.02;;;13.60;;
22248;SDS011;67538;52.180;5.646;2023-04-24T07:23:19;21.58;;;13.40;;
22248;SDS011;67538;52.180;5.646;2023-04-24T07:25:47;21.95;;;13.93;;
22248;SDS011;67538;52.180;5.646;2023-04-24T07:28:15;18.70;;;12.90;;
22248;SDS011;67538;52.180;5.646;2023-04-24T07:30:43;24.52;;;14.50;;
22248;SDS011;67538;52.180;5.646;2023-04-24T07:33:10;22.23;;;14.18;;
22248;SDS011;67538;52.180;5.646;2023-04-24T07:35:38;28.80;;;14.80;;
22248;SDS011;67538;52.180;5.646;2023-04-24T07:38:05;23.52;;;13.98;;
22248;SDS011;67538;52.180;5.646;2023-04-24T07:40:32;22.58;;;13.60;;
22248;SDS011;67538;52.180;5.646;2023-04-24T07:43:00;22.38;;;13.48;;
22248;SDS011;67538;52.180;5.646;2023-04-24T07:45:27;24.77;;;12.93;;
22248;SDS011;67538;52.180;5.646;2023-04-24T07:47:56;23.85;;;12.85;;
22248;SDS011;67538;52.180;5.646;2023-04-24T07:50:23;20.58;;;12.00;;
22248;SDS011;67538;52.180;5.646;2023-04-24T07:52:50;19.85;;;11.57;;
22248;SDS011;67538;52.180;5.646;2023-04-24T07:55:17;19.58;;;11.15;;
22248;SDS011;67538;52.180;5.646;2023-04-24T07:57:44;20.25;;;11.10;;
22248;SDS011;67538;52.180;5.646;2023-04-24T08:00:13;19.95;;;11.13;;
22248;SDS011;67538;52.180;5.646;2023-04-24T08:02:40;18.73;;;11.13;;
22248;SDS011;67538;52.180;5.646;2023-04-24T08:05:08;18.38;;;11.32;;
22248;SDS011;67538;52.180;5.646;2023-04-24T08:07:35;20.95;;;11.68;;
22248;SDS011;67538;52.180;5.646;2023-04-24T08:10:02;21.47;;;12.17;;
22248;SDS011;67538;52.180;5.646;2023-04-24T08:12:30;19.10;;;11.63;;
22248;SDS011;67538;52.180;5.646;2023-04-24T08:14:57;22.15;;;11.85;;
22248;SDS011;67538;52.180;5.646;2023-04-24T08:17:25;19.95;;;11.38;;
22248;SDS011;67538;52.180;5.646;2023-04-24T08:19:52;25.52;;;12.15;;
22248;SDS011;67538;52.180;5.646;2023-04-24T08:22:26;22.52;;;11.85;;
22248;SDS011;67538;52.180;5.646;2023-04-24T08:24:53;24.98;;;12.07;;
22248;SDS011;67538;52.180;5.646;2023-04-24T08:27:21;23.20;;;12.07;;
22248;SDS011;67538;52.180;5.646;2023-04-24T08:29:48;23.33;;;12.90;;
22248;SDS011;67538;52.180;5.646;2023-04-24T08:32:15;26.20;;;12.98;;
22248;SDS011;67538;52.180;5.646;2023-04-24T08:34:44;19.67;;;11.60;;
22248;SDS011;67538;52.180;5.646;2023-04-24T08:37:11;23.83;;;12.23;;
22248;SDS011;67538;52.180;5.646;2023-04-24T08:39:38;26.90;;;12.40;;
22248;SDS011;67538;52.180;5.646;2023-04-24T08:42:05;20.63;;;9.43;;
22248;SDS011;67538;52.180;5.646;2023-04-24T08:44:33;17.30;;;9.13;;
22248;SDS011;67538;52.180;5.646;2023-04-24T08:47:01;19.63;;;8.07;;
22248;SDS011;67538;52.180;5.646;2023-04-24T08:49:29;21.70;;;8.05;;
22248;SDS011;67538;52.180;5.646;2023-04-24T08:51:58;24.75;;;6.85;;
22248;SDS011;67538;52.180;5.646;2023-04-24T08:54:26;19.80;;;6.60;;
22248;SDS011;67538;52.180;5.646;2023-04-24T08:56:54;21.20;;;7.18;;
22248;SDS011;67538;52.180;5.646;2023-04-24T08:59:26;27.77;;;7.63;;
22248;SDS011;67538;52.180;5.646;2023-04-24T09:01:53;24.10;;;6.68;;
22248;SDS011;67538;52.180;5.646;2023-04-24T09:04:22;26.10;;;6.75;;
22248;SDS011;67538;52.180;5.646;2023-04-24T09:06:50;23.25;;;5.80;;
22248;SDS011;67538;52.180;5.646;2023-04-24T09:09:19;19.17;;;6.10;;
22248;SDS011;67538;52.180;5.646;2023-04-24T09:11:47;19.15;;;6.15;;
22248;SDS011;67538;52.180;5.646;2023-04-24T09:14:15;19.70;;;6.53;;
22248;SDS011;67538;52.180;5.646;2023-04-24T09:16:43;24.63;;;6.47;;
22248;SDS011;67538;52.180;5.646;2023-04-24T09:19:10;24.10;;;6.60;;
22248;SDS011;67538;52.180;5.646;2023-04-24T09:21:37;25.63;;;6.18;;
22248;SDS011;67538;52.180;5.646;2023-04-24T09:24:07;21.42;;;6.40;;
22248;SDS011;67538;52.180;5.646;2023-04-24T09:26:47;26.27;;;6.63;;
22248;SDS011;67538;52.180;5.646;2023-04-24T09:29:14;21.63;;;6.25;;
22248;SDS011;67538;52.180;5.646;2023-04-24T09:31:42;25.60;;;6.78;;
22248;SDS011;67538;52.180;5.646;2023-04-24T09:34:10;26.75;;;6.43;;
22248;SDS011;67538;52.180;5.646;2023-04-24T09:36:38;22.95;;;6.15;;
22248;SDS011;67538;52.180;5.646;2023-04-24T09:39:08;17.30;;;5.70;;
22248;SDS011;67538;52.180;5.646;2023-04-24T09:41:43;19.48;;;5.65;;
22248;SDS011;67538;52.180;5.646;2023-04-24T09:44:13;24.60;;;5.90;;
22248;SDS011;67538;52.180;5.646;2023-04-24T09:46:41;19.85;;;5.75;;
22248;SDS011;67538;52.180;5.646;2023-04-24T09:49:12;19.77;;;5.40;;
22248;SDS011;67538;52.180;5.646;2023-04-24T09:51:40;14.68;;;4.68;;
22248;SDS011;67538;52.180;5.646;2023-04-24T09:54:13;18.30;;;5.03;;
22248;SDS011;67538;52.180;5.646;2023-04-24T09:56:42;12.45;;;4.38;;
22248;SDS011;67538;52.180;5.646;2023-04-24T09:59:12;14.80;;;4.13;;
22248;SDS011;67538;52.180;5.646;2023-04-24T10:01:40;12.75;;;4.20;;
22248;SDS011;67538;52.180;5.646;2023-04-24T10:04:16;10.57;;;4.07;;
22248;SDS011;67538;52.180;5.646;2023-04-24T10:06:44;13.25;;;4.45;;
22248;SDS011;67538;52.180;5.646;2023-04-24T10:09:13;12.20;;;3.88;;
22248;SDS011;67538;52.180;5.646;2023-04-24T10:11:41;15.55;;;4.50;;
22248;SDS011;67538;52.180;5.646;2023-04-24T10:14:10;13.57;;;4.20;;
22248;SDS011;67538;52.180;5.646;2023-04-24T10:16:41;15.32;;;4.50;;
22248;SDS011;67538;52.180;5.646;2023-04-24T10:19:09;15.75;;;4.60;;
22248;SDS011;67538;52.180;5.646;2023-04-24T10:21:38;14.70;;;4.88;;
22248;SDS011;67538;52.180;5.646;2023-04-24T10:24:11;20.73;;;4.68;;
22248;SDS011;67538;52.180;5.646;2023-04-24T10:26:39;18.30;;;4.78;;
22248;SDS011;67538;52.180;5.646;2023-04-24T10:29:07;16.83;;;4.50;;
22248;SDS011;67538;52.180;5.646;2023-04-24T10:31:36;19.70;;;4.88;;
22248;SDS011;67538;52.180;5.646;2023-04-24T10:34:04;15.98;;;4.50;;
22248;SDS011;67538;52.180;5.646;2023-04-24T10:36:32;19.57;;;4.73;;
22248;SDS011;67538;52.180;5.646;2023-04-24T10:39:00;15.40;;;4.80;;
22248;SDS011;67538;52.180;5.646;2023-04-24T10:41:30;17.10;;;4.63;;
22248;SDS011;67538;52.180;5.646;2023-04-24T10:44:06;15.43;;;4.43;;
22248;SDS011;67538;52.180;5.646;2023-04-24T10:46:34;10.43;;;3.60;;
22248;SDS011;67538;52.180;5.646;2023-04-24T10:49:04;13.20;;;3.58;;
22248;SDS011;67538;52.180;5.646;2023-04-24T10:51:44;11.07;;;3.67;;
22248;SDS011;67538;52.180;5.646;2023-04-24T10:54:22;11.95;;;2.97;;
22248;SDS011;67538;52.180;5.646;2023-04-24T10:56:51;8.18;;;3.30;;
22248;SDS011;67538;52.180;5.646;2023-04-24T10:59:24;9.57;;;2.95;;
22248;SDS011;67538;52.180;5.646;2023-04-24T11:01:54;12.05;;;2.88;;
22248;SDS011;67538;52.180;5.646;2023-04-24T11:04:31;5.43;;;2.70;;
22248;SDS011;67538;52.180;5.646;2023-04-24T11:07:00;9.23;;;2.90;;
22248;SDS011;67538;52.180;5.646;2023-04-24T11:09:27;7.90;;;3.03;;
22248;SDS011;67538;52.180;5.646;2023-04-24T11:12:02;9.93;;;2.90;;
22248;SDS011;67538;52.180;5.646;2023-04-24T11:14:42;11.40;;;3.10;;
22248;SDS011;67538;52.180;5.646;2023-04-24T11:17:28;7.80;;;2.80;;
22248;SDS011;67538;52.180;5.646;2023-04-24T11:20:00;11.63;;;2.97;;
22248;SDS011;67538;52.180;5.646;2023-04-24T11:22:28;9.50;;;3.30;;
22248;SDS011;67538;52.180;5.646;2023-04-24T11:24:59;12.38;;;3.20;;
22248;SDS011;67538;52.180;5.646;2023-04-24T11:27:29;12.48;;;3.28;;
22248;SDS011;67538;52.180;5.646;2023-04-24T11:30:01;8.45;;;3.17;;
22248;SDS011;67538;52.180;5.646;2023-04-24T11:32:34;9.50;;;3.00;;
22248;SDS011;67538;52.180;5.646;2023-04-24T11:35:02;9.88;;;2.75;;
22248;SDS011;67538;52.180;5.646;2023-04-24T11:37:33;9.52;;;2.70;;
22248;SDS011;67538;52.180;5.646;2023-04-24T11:40:02;11.48;;;3.00;;
22248;SDS011;67538;52.180;5.646;2023-04-24T11:42:33;10.90;;;2.85;;
22248;SDS011;67538;52.180;5.646;2023-04-24T11:45:01;8.15;;;2.80;;
22248;SDS011;67538;52.180;5.646;2023-04-24T11:47:29;8.77;;;2.85;;
22248;SDS011;67538;52.180;5.646;2023-04-24T11:49:59;7.30;;;2.88;;
22248;SDS011;67538;52.180;5.646;2023-04-24T11:52:26;8.68;;;2.85;;
22248;SDS011;67538;52.180;5.646;2023-04-24T11:54:54;6.47;;;2.38;;
22248;SDS011;67538;52.180;5.646;2023-04-24T11:57:21;6.50;;;2.40;;
22248;SDS011;67538;52.180;5.646;2023-04-24T11:59:51;5.53;;;2.15;;
22248;SDS011;67538;52.180;5.646;2023-04-24T12:02:22;6.15;;;1.85;;
22248;SDS011;67538;52.180;5.646;2023-04-24T12:04:51;5.30;;;1.85;;
22248;SDS011;67538;52.180;5.646;2023-04-24T12:07:18;4.82;;;1.90;;
22248;SDS011;67538;52.180;5.646;2023-04-24T12:09:46;6.40;;;2.45;;
22248;SDS011;67538;52.180;5.646;2023-04-24T12:12:15;5.47;;;2.30;;
22248;SDS011;67538;52.180;5.646;2023-04-24T12:14:50;5.10;;;2.10;;
22248;SDS011;67538;52.180;5.646;2023-04-24T12:17:23;6.05;;;2.30;;
22248;SDS011;67538;52.180;5.646;2023-04-24T12:19:56;7.00;;;2.22;;
22248;SDS011;67538;52.180;5.646;2023-04-24T12:22:24;6.47;;;2.20;;
22248;SDS011;67538;52.180;5.646;2023-04-24T12:24:56;6.00;;;2.13;;
22248;SDS011;67538;52.180;5.646;2023-04-24T12:27:23;5.53;;;2.20;;
22248;SDS011;67538;52.180;5.646;2023-04-24T12:29:51;7.82;;;2.17;;
22248;SDS011;67538;52.180;5.646;2023-04-24T12:32:19;5.75;;;1.90;;
22248;SDS011;67538;52.180;5.646;2023-04-24T12:34:46;7.22;;;2.28;;
22248;SDS011;67538;52.180;5.646;2023-04-24T12:37:14;8.00;;;2.25;;
22248;SDS011;67538;52.180;5.646;2023-04-24T12:39:44;8.05;;;2.10;;
22248;SDS011;67538;52.180;5.646;2023-04-24T12:42:25;6.87;;;2.50;;
22248;SDS011;67538;52.180;5.646;2023-04-24T12:44:55;7.28;;;2.30;;
22248;SDS011;67538;52.180;5.646;2023-04-24T12:47:23;7.53;;;2.45;;
22248;SDS011;67538;52.180;5.646;2023-04-24T12:49:50;5.65;;;2.30;;
22248;SDS011;67538;52.180;5.646;2023-04-24T12:52:19;7.87;;;2.50;;
22248;SDS011;67538;52.180;5.646;2023-04-24T12:54:46;7.78;;;2.50;;
22248;SDS011;67538;52.180;5.646;2023-04-24T12:57:13;8.48;;;2.22;;
22248;SDS011;67538;52.180;5.646;2023-04-24T12:59:40;7.77;;;2.13;;
22248;SDS011;67538;52.180;5.646;2023-04-24T13:02:08;7.90;;;2.40;;
22248;SDS011;67538;52.180;5.646;2023-04-24T13:04:35;6.15;;;2.28;;
22248;SDS011;67538;52.180;5.646;2023-04-24T13:07:02;11.45;;;2.42;;
22248;SDS011;67538;52.180;5.646;2023-04-24T13:09:31;9.07;;;3.15;;
22248;SDS011;67538;52.180;5.646;2023-04-24T13:12:00;9.90;;;3.17;;
22248;SDS011;67538;52.180;5.646;2023-04-24T13:14:27;9.30;;;2.95;;
22248;SDS011;67538;52.180;5.646;2023-04-24T13:16:54;11.53;;;3.13;;
22248;SDS011;67538;52.180;5.646;2023-04-24T13:19:23;9.85;;;3.38;;
22248;SDS011;67538;52.180;5.646;2023-04-24T13:21:51;12.55;;;3.33;;
22248;SDS011;67538;52.180;5.646;2023-04-24T13:24:18;17.90;;;3.80;;
22248;SDS011;67538;52.180;5.646;2023-04-24T13:26:46;13.45;;;3.92;;
22248;SDS011;67538;52.180;5.646;2023-04-24T13:29:13;12.68;;;3.80;;
22248;SDS011;67538;52.180;5.646;2023-04-24T13:31:40;19.67;;;4.43;;
22248;SDS011;67538;52.180;5.646;2023-04-24T13:34:07;15.23;;;4.15;;
22248;SDS011;67538;52.180;5.646;2023-04-24T13:36:35;24.15;;;4.63;;
22248;SDS011;67538;52.180;5.646;2023-04-24T13:39:02;25.13;;;5.72;;
22248;SDS011;67538;52.180;5.646;2023-04-24T13:41:32;20.10;;;4.60;;
22248;SDS011;67538;52.180;5.646;2023-04-24T13:44:01;19.50;;;5.20;;
22248;SDS011;67538;52.180;5.646;2023-04-24T13:46:28;21.98;;;4.88;;
22248;SDS011;67538;52.180;5.646;2023-04-24T13:48:55;19.02;;;4.40;;
22248;SDS011;67538;52.180;5.646;2023-04-24T13:51:23;18.42;;;4.47;;
22248;SDS011;67538;52.180;5.646;2023-04-24T13:53:52;17.27;;;4.40;;
22248;SDS011;67538;52.180;5.646;2023-04-24T13:56:19;21.90;;;4.20;;
22248;SDS011;67538;52.180;5.646;2023-04-24T13:58:47;16.45;;;3.78;;
22248;SDS011;67538;52.180;5.646;2023-04-24T14:01:16;17.95;;;4.22;;
22248;SDS011;67538;52.180;5.646;2023-04-24T14:03:43;17.15;;;4.03;;
22248;SDS011;67538;52.180;5.646;2023-04-24T14:06:10;15.70;;;4.03;;
22248;SDS011;67538;52.180;5.646;2023-04-24T14:08:37;17.33;;;4.45;;
22248;SDS011;67538;52.180;5.646;2023-04-24T14:11:04;18.27;;;4.53;;
22248;SDS011;67538;52.180;5.646;2023-04-24T14:13:31;24.88;;;4.60;;
22248;SDS011;67538;52.180;5.646;2023-04-24T14:15:58;15.20;;;4.63;;
22248;SDS011;67538;52.180;5.646;2023-04-24T14:18:26;15.90;;;4.70;;
22248;SDS011;67538;52.180;5.646;2023-04-24T14:20:54;16.95;;;4.82;;
22248;SDS011;67538;52.180;5.646;2023-04-24T14:23:21;17.13;;;4.85;;
22248;SDS011;67538;52.180;5.646;2023-04-24T14:25:48;17.60;;;4.35;;
22248;SDS011;67538;52.180;5.646;2023-04-24T14:28:17;17.23;;;4.82;;
22248;SDS011;67538;52.180;5.646;2023-04-24T14:30:44;16.17;;;4.47;;
22248;SDS011;67538;52.180;5.646;2023-04-24T14:33:11;17.15;;;4.25;;
22248;SDS011;67538;52.180;5.646;2023-04-24T14:35:40;14.57;;;4.00;;